Time;durP1;ratioP1;P1;durP2;ratioP2;P2;SDS_P1;SDS_P2;PMS_P1;PMS_P2;Temp;Humidity;BMP_temperature;BMP_pressure;BME280_temperature;BME280_humidity;BME280_pressure;Samples;Min_cycle;Max_cycle;Signal;HPM_P1;HPM_P2
2023/10/14 00:01:36;;;;;;;5.80;1.42;;;13.50;99.90;;;;;;7374629;19;20018;-66
2023/10/14 00:04:04;;;;;;;5.43;1.42;;;13.30;99.90;;;;;;7376256;19;20490;-65
2023/10/14 00:06:38;;;;;;;4.20;1.80;;;13.30;99.90;;;;;;7372976;19;20015;-66
2023/10/14 00:09:11;;;;;;;6.75;2.70;;;13.40;99.90;;;;;;7376815;19;20094;-66
2023/10/14 00:11:43;;;;;;;8.73;2.47;;;13.30;99.90;;;;;;7373484;19;20022;-65
2023/10/14 00:14:14;;;;;;;6.65;2.22;;;13.30;99.90;;;;;;7374227;19;20294;-65
2023/10/14 00:16:42;;;;;;;6.93;1.88;;;13.40;99.90;;;;;;7370843;19;20049;-65
2023/10/14 00:19:09;;;;;;;7.30;1.70;;;13.30;99.90;;;;;;7372939;19;20394;-66
2023/10/14 00:21:36;;;;;;;6.30;1.83;;;13.20;99.90;;;;;;7372856;19;20506;-66
2023/10/14 00:24:06;;;;;;;9.02;1.85;;;13.10;99.90;;;;;;7373129;19;20896;-66
2023/10/14 00:26:33;;;;;;;5.93;1.63;;;13.00;99.90;;;;;;7372568;19;20098;-61
2023/10/14 00:31:44;;;;;;;11.05;1.70;;;12.90;99.90;;;;;;7373878;19;20018;-61
2023/10/14 00:34:11;;;;;;;6.97;1.33;;;12.90;99.90;;;;;;7371623;19;20022;-61
2023/10/14 00:36:37;;;;;;;8.75;1.60;;;12.70;99.90;;;;;;7373289;19;20068;-61
2023/10/14 00:39:16;;;;;;;6.55;1.65;;;12.60;99.90;;;;;;7376318;19;20622;-61
2023/10/14 00:41:44;;;;;;;8.75;2.55;;;12.50;99.90;;;;;;7375263;19;20025;-62
2023/10/14 00:44:12;;;;;;;7.88;1.88;;;12.30;99.90;;;;;;7374969;19;20023;-61
2023/10/14 00:46:42;;;;;;;10.98;1.90;;;12.30;99.90;;;;;;7366718;19;20022;-61
2023/10/14 00:49:12;;;;;;;10.10;1.70;;;12.30;99.90;;;;;;7375626;19;20018;-61
2023/10/14 00:51:45;;;;;;;7.63;1.65;;;12.30;99.90;;;;;;7369545;19;20022;-61
2023/10/14 00:54:17;;;;;;;11.57;2.20;;;12.20;99.90;;;;;;7372883;19;20018;-61
2023/10/14 00:56:45;;;;;;;11.55;2.20;;;12.20;99.90;;;;;;7373702;19;20025;-61
2023/10/14 00:59:15;;;;;;;9.30;1.80;;;12.20;99.90;;;;;;7372751;19;20020;-65
2023/10/14 01:01:58;;;;;;;11.13;2.60;;;12.20;99.90;;;;;;7365602;19;20022;-67
2023/10/14 01:04:40;;;;;;;6.75;1.40;;;12.10;99.90;;;;;;7370797;19;20646;-68
2023/10/14 01:07:12;;;;;;;8.27;1.58;;;12.10;99.90;;;;;;7368036;19;20029;-66
2023/10/14 01:12:16;;;;;;;9.60;2.35;;;12.00;99.90;;;;;;7369315;19;20020;-66
2023/10/14 01:14:52;;;;;;;11.75;2.60;;;12.00;99.90;;;;;;7370494;19;20942;-66
2023/10/14 01:19:56;;;;;;;10.95;2.20;;;11.90;99.90;;;;;;7370654;19;20026;-66
2023/10/14 01:22:22;;;;;;;12.43;2.22;;;11.90;99.90;;;;;;7370373;19;20014;-66
2023/10/14 01:24:48;;;;;;;10.40;1.73;;;11.80;99.90;;;;;;7371926;19;20436;-67
2023/10/14 01:27:16;;;;;;;7.45;2.20;;;11.90;99.90;;;;;;7371574;19;20027;-67
2023/10/14 01:29:44;;;;;;;14.02;2.92;;;11.80;99.90;;;;;;7372856;19;20086;-64
2023/10/14 01:35:13;;;;;;;14.80;2.67;;;11.70;99.90;;;;;;7370191;19;20018;-67
2023/10/14 01:37:40;;;;;;;13.80;2.50;;;11.60;99.90;;;;;;7365764;19;20022;-66
2023/10/14 01:40:35;;;;;;;11.23;2.25;;;11.70;99.90;;;;;;7363605;19;20050;-66
2023/10/14 01:42:57;;;;;;;10.80;2.50;;;11.60;99.90;;;;;;7368699;19;20019;-61
2023/10/14 01:45:30;;;;;;;11.75;2.30;;;11.60;99.90;;;;;;7368626;19;20014;-61
2023/10/14 01:50:38;;;;;;;14.57;2.30;;;11.40;99.90;;;;;;7372182;19;20379;-61
2023/10/14 01:53:10;;;;;;;9.10;2.50;;;11.50;99.90;;;;;;7368686;19;20022;-61
2023/10/14 01:55:41;;;;;;;8.63;2.38;;;11.30;99.90;;;;;;7370475;19;20015;-61
2023/10/14 01:58:21;;;;;;;18.02;3.28;;;11.40;99.90;;;;;;7374518;19;20687;-61
2023/10/14 02:00:53;;;;;;;15.73;2.45;;;11.20;99.90;;;;;;7378944;19;20374;-61
2023/10/14 02:03:23;;;;;;;14.18;2.40;;;11.20;99.90;;;;;;7374536;19;20018;-60
2023/10/14 02:05:52;;;;;;;15.98;2.35;;;11.20;99.90;;;;;;7370082;19;20022;-66
2023/10/14 02:08:23;;;;;;;12.55;3.25;;;11.20;99.90;;;;;;7365146;19;20018;-65
2023/10/14 02:10:50;;;;;;;16.52;2.70;;;11.30;99.90;;;;;;7375340;19;20022;-61
2023/10/14 02:13:21;;;;;;;13.65;2.33;;;11.20;99.90;;;;;;7380189;19;20029;-61
2023/10/14 02:15:49;;;;;;;8.68;2.47;;;11.20;99.90;;;;;;7377427;19;20380;-66
2023/10/14 02:18:23;;;;;;;10.57;2.42;;;11.20;99.90;;;;;;7374144;19;20090;-66
2023/10/14 02:20:56;;;;;;;14.52;2.65;;;11.10;99.90;;;;;;7372282;19;20022;-66
2023/10/14 02:23:27;;;;;;;13.90;2.72;;;11.10;99.90;;;;;;7374048;19;20018;-62
2023/10/14 02:25:56;;;;;;;12.20;2.05;;;11.00;99.90;;;;;;7375047;19;20025;-67
2023/10/14 02:28:39;;;;;;;12.65;2.42;;;10.90;99.90;;;;;;7374060;19;20029;-62
2023/10/14 02:31:15;;;;;;;10.32;2.35;;;10.80;99.90;;;;;;7370565;19;20052;-60
2023/10/14 02:33:45;;;;;;;12.02;1.98;;;10.70;99.90;;;;;;7374246;19;20025;-65
2023/10/14 02:36:15;;;;;;;15.88;3.03;;;10.70;99.90;;;;;;7378114;19;20107;-61
2023/10/14 02:38:45;;;;;;;;;;;10.60;99.90;;;;;;7376878;19;20030;-61
2023/10/14 02:41:15;;;;;;;12.35;2.22;;;10.50;99.90;;;;;;7372670;19;20378;-66
2023/10/14 02:43:42;;;;;;;15.65;2.85;;;10.40;99.90;;;;;;7378302;19;20026;-66
2023/10/14 02:46:10;;;;;;;16.92;3.47;;;10.30;99.90;;;;;;7376861;19;20362;-67
2023/10/14 02:48:53;;;;;;;14.77;2.70;;;10.30;99.90;;;;;;7376214;19;20018;-65
2023/10/14 02:51:29;;;;;;;17.63;2.35;;;10.20;99.90;;;;;;7375517;19;20018;-65
2023/10/14 02:53:57;;;;;;;13.70;2.65;;;10.10;99.90;;;;;;7381947;19;20018;-62
2023/10/14 02:56:33;;;;;;;15.43;2.85;;;10.10;99.90;;;;;;7377025;19;20068;-61
2023/10/14 02:58:59;;;;;;;12.50;2.30;;;10.00;99.90;;;;;;7380582;19;20363;-62
2023/10/14 03:01:31;;;;;;;10.82;2.28;;;10.00;99.90;;;;;;7376902;19;20085;-62
2023/10/14 03:04:07;;;;;;;11.73;3.67;;;9.90;99.90;;;;;;7380475;19;20041;-62
2023/10/14 03:06:46;;;;;;;11.80;2.83;;;9.90;99.90;;;;;;7379186;19;20669;-62
2023/10/14 03:09:32;;;;;;;12.77;2.42;;;9.90;99.90;;;;;;7373993;19;20466;-66
2023/10/14 03:11:58;;;;;;;11.05;2.47;;;9.90;99.90;;;;;;7377453;19;20022;-62
2023/10/14 03:14:25;;;;;;;14.55;2.30;;;9.80;99.90;;;;;;7376691;19;20028;-62
2023/10/14 03:16:52;;;;;;;13.75;2.20;;;9.80;99.90;;;;;;7377208;19;20022;-62
2023/10/14 03:19:20;;;;;;;14.85;2.60;;;9.70;99.90;;;;;;7377252;19;20022;-62
2023/10/14 03:21:58;;;;;;;11.15;2.00;;;9.70;99.90;;;;;;7377138;19;20108;-62
2023/10/14 03:24:26;;;;;;;11.30;2.90;;;9.70;99.90;;;;;;7370221;19;20041;-66
2023/10/14 03:27:04;;;;;;;11.90;2.25;;;9.60;99.90;;;;;;7373818;19;20506;-66
2023/10/14 03:29:31;;;;;;;18.60;2.90;;;9.60;99.90;;;;;;7372663;19;20026;-66
2023/10/14 03:31:57;;;;;;;14.00;2.35;;;9.60;99.90;;;;;;7371650;19;20018;-66
2023/10/14 03:34:30;;;;;;;14.13;3.00;;;9.70;99.90;;;;;;7374922;19;20018;-66
2023/10/14 03:37:00;;;;;;;11.95;2.67;;;9.70;99.90;;;;;;7375187;19;20018;-62
2023/10/14 03:39:46;;;;;;;11.25;2.00;;;9.70;99.90;;;;;;7378468;19;20070;-61
2023/10/14 03:42:15;;;;;;;13.50;2.80;;;9.70;99.90;;;;;;7371731;19;20018;-62
2023/10/14 03:44:42;;;;;;;13.45;2.60;;;9.70;99.90;;;;;;7376998;19;20022;-62
2023/10/14 03:47:16;;;;;;;13.20;3.03;;;9.60;99.90;;;;;;7373825;19;20054;-62
2023/10/14 03:49:43;;;;;;;13.48;2.00;;;9.60;99.90;;;;;;7376803;19;20022;-62
2023/10/14 03:52:12;;;;;;;13.68;2.83;;;9.60;99.90;;;;;;7376101;19;20025;-62
2023/10/14 03:54:42;;;;;;;12.23;2.03;;;9.60;99.90;;;;;;7375550;19;20041;-62
2023/10/14 03:57:32;;;;;;;12.80;2.70;;;9.60;99.90;;;;;;7372909;19;20500;-62
2023/10/14 03:59:56;;;;;;;12.45;2.85;;;9.60;99.90;;;;;;7375239;19;20010;-62
2023/10/14 04:02:25;;;;;;;12.77;2.25;;;9.50;99.90;;;;;;7374298;19;20014;-61
2023/10/14 04:04:58;;;;;;;12.48;2.60;;;9.50;99.90;;;;;;7375462;19;20025;-60
2023/10/14 04:07:28;;;;;;;11.45;2.10;;;9.50;99.90;;;;;;7378501;19;20374;-61
2023/10/14 04:09:58;;;;;;;18.20;2.85;;;9.50;99.90;;;;;;7373116;19;20021;-61
2023/10/14 04:12:33;;;;;;;13.18;2.05;;;9.50;99.90;;;;;;7374322;19;20863;-61
2023/10/14 04:17:39;;;;;;;11.77;2.53;;;9.60;99.90;;;;;;7375900;19;20050;-62
2023/10/14 04:22:38;;;;;;;12.82;2.13;;;9.60;99.90;;;;;;7372542;19;20023;-66
2023/10/14 04:27:45;;;;;;;12.02;2.22;;;9.80;99.90;;;;;;7373522;19;20027;-61
2023/10/14 04:30:20;;;;;;;12.52;2.45;;;9.80;99.90;;;;;;7373662;19;20054;-61
2023/10/14 04:35:24;;;;;;;9.85;1.95;;;9.90;99.90;;;;;;7374691;19;20027;-63
2023/10/14 04:37:51;;;;;;;16.35;2.83;;;9.90;99.90;;;;;;7371981;19;21036;-68
2023/10/14 04:40:37;;;;;;;18.17;2.78;;;9.90;99.90;;;;;;7371330;19;20023;-67
2023/10/14 04:45:52;;;;;;;10.73;2.53;;;9.70;99.90;;;;;;7370977;19;20025;-67
2023/10/14 04:48:26;;;;;;;11.48;2.10;;;9.70;99.90;;;;;;7371071;19;20113;-67
2023/10/14 04:50:58;;;;;;;11.52;2.38;;;9.60;99.90;;;;;;7371877;19;20018;-67
2023/10/14 04:53:26;;;;;;;15.63;3.15;;;9.60;99.90;;;;;;7370198;19;20025;-62
2023/10/14 04:55:53;;;;;;;13.60;2.45;;;9.50;99.90;;;;;;7375882;19;20022;-62
2023/10/14 04:58:25;;;;;;;13.32;2.17;;;9.50;99.90;;;;;;7373611;19;20021;-67
2023/10/14 05:00:52;;;;;;;13.88;3.05;;;9.40;99.90;;;;;;7371497;19;20020;-67
2023/10/14 05:03:22;;;;;;;13.18;2.28;;;9.40;99.90;;;;;;7368793;19;20097;-67
2023/10/14 05:05:52;;;;;;;18.10;2.70;;;9.30;99.90;;;;;;7367542;19;20448;-67
2023/10/14 05:08:24;;;;;;;12.32;2.60;;;9.30;99.90;;;;;;7367342;19;20029;-67
2023/10/14 05:10:51;;;;;;;12.32;2.58;;;9.30;99.90;;;;;;7367713;19;20070;-67
2023/10/14 05:13:33;;;;;;;15.85;2.28;;;9.30;99.90;;;;;;7366033;19;20014;-62
2023/10/14 05:16:16;;;;;;;17.90;2.17;;;9.40;99.90;;;;;;7369181;19;20693;-60
2023/10/14 05:21:35;;;;;;;9.25;1.90;;;9.40;99.90;;;;;;7372185;19;20081;-65
2023/10/14 05:24:09;;;;;;;15.43;2.25;;;9.50;99.90;;;;;;7367377;19;20753;-66
2023/10/14 05:26:43;;;;;;;11.77;2.00;;;9.50;99.90;;;;;;7366171;19;20392;-60
2023/10/14 05:29:17;;;;;;;15.43;2.70;;;9.50;99.90;;;;;;7371151;19;20071;-62
2023/10/14 05:31:44;;;;;;;12.27;2.25;;;9.40;99.90;;;;;;7365344;19;20363;-62
2023/10/14 05:34:10;;;;;;;13.00;2.20;;;9.40;99.90;;;;;;7376932;19;20026;-62
2023/10/14 05:36:37;;;;;;;11.50;3.33;;;9.30;99.90;;;;;;7377982;19;20015;-62
2023/10/14 05:39:06;;;;;;;16.25;2.70;;;9.30;99.90;;;;;;7376348;19;20593;-63
2023/10/14 05:41:36;;;;;;;20.77;2.90;;;9.20;99.90;;;;;;7380130;19;20019;-63
2023/10/14 05:44:04;;;;;;;15.25;2.20;;;9.20;99.90;;;;;;7375761;19;20434;-63
2023/10/14 05:46:30;;;;;;;20.77;2.78;;;9.20;99.90;;;;;;7376108;19;20492;-61
2023/10/14 05:48:57;;;;;;;14.15;2.63;;;9.20;99.90;;;;;;7380292;19;20045;-61
2023/10/14 05:51:23;;;;;;;16.08;3.10;;;9.20;99.90;;;;;;7376785;19;20014;-61
2023/10/14 05:53:50;;;;;;;11.40;2.75;;;9.20;99.90;;;;;;7378226;19;20022;-61
2023/10/14 05:56:17;;;;;;;15.68;2.65;;;9.20;99.90;;;;;;7372958;19;20025;-61
2023/10/14 05:58:46;;;;;;;21.00;3.08;;;9.20;99.90;;;;;;7375483;19;20038;-61
2023/10/14 06:01:16;;;;;;;10.75;2.55;;;9.20;99.90;;;;;;7376918;19;20056;-65
2023/10/14 06:03:42;;;;;;;12.73;2.53;;;9.20;99.90;;;;;;7372991;19;20860;-66
2023/10/14 06:06:10;;;;;;;13.90;2.60;;;9.30;99.90;;;;;;7370307;19;20471;-65
2023/10/14 06:08:37;;;;;;;12.80;2.75;;;9.20;99.90;;;;;;7374581;19;20022;-67
2023/10/14 06:11:06;;;;;;;13.70;2.83;;;9.30;99.90;;;;;;7371830;19;20015;-66
2023/10/14 06:13:34;;;;;;;11.70;2.30;;;9.20;99.90;;;;;;7370415;19;20109;-67
2023/10/14 06:16:07;;;;;;;82.63;59.80;;;9.20;99.90;;;;;;7369519;19;20585;-64
2023/10/14 06:18:33;;;;;;;41.08;23.92;;;9.40;99.90;;;;;;7373375;19;20945;-64
2023/10/14 06:20:59;;;;;;;15.70;4.85;;;9.50;99.90;;;;;;7369280;19;20061;-64
2023/10/14 06:23:28;;;;;;;27.35;5.35;;;9.60;99.90;;;;;;7373036;19;20763;-64
2023/10/14 06:25:55;;;;;;;12.90;2.65;;;9.70;99.90;;;;;;7365170;19;20038;-63
2023/10/14 06:28:25;;;;;;;14.32;2.90;;;9.50;99.90;;;;;;7368162;19;20042;-61
2023/10/14 06:30:51;;;;;;;260.20;209.90;;;9.70;99.90;;;;;;7363438;19;20366;-64
2023/10/14 06:33:18;;;;;;;43.70;23.83;;;9.70;99.90;;;;;;7373884;19;20093;-60
2023/10/14 06:35:44;;;;;;;16.83;4.68;;;9.70;99.90;;;;;;7369377;19;20019;-59
2023/10/14 06:38:17;;;;;;;31.75;13.57;;;9.80;99.90;;;;;;7375269;19;20027;-63
2023/10/14 06:40:53;;;;;;;16.52;4.15;;;9.80;99.90;;;;;;7370064;19;20502;-59
2023/10/14 06:43:22;;;;;;;19.05;4.85;;;9.90;99.90;;;;;;7374142;19;20018;-59
2023/10/14 06:45:51;;;;;;;20.48;4.75;;;10.00;99.90;;;;;;7368074;19;20485;-59
2023/10/14 06:48:18;;;;;;;15.00;3.38;;;10.10;99.90;;;;;;7372518;19;20015;-60
2023/10/14 06:50:48;;;;;;;15.80;3.00;;;10.10;99.90;;;;;;7371728;19;20022;-59
2023/10/14 06:53:17;;;;;;;15.90;2.65;;;10.10;99.90;;;;;;7373845;19;20026;-59
2023/10/14 06:55:44;;;;;;;14.18;2.80;;;10.10;99.90;;;;;;7369742;19;20367;-59
2023/10/14 06:58:11;;;;;;;14.35;2.65;;;10.20;99.90;;;;;;7370355;19;20022;-59
2023/10/14 07:00:40;;;;;;;17.35;2.90;;;10.10;99.90;;;;;;7372494;19;20699;-59
2023/10/14 07:03:12;;;;;;;17.65;2.95;;;10.10;99.90;;;;;;7369779;19;20493;-59
2023/10/14 07:05:43;;;;;;;50.10;33.13;;;10.10;99.90;;;;;;7362003;19;20015;-58
2023/10/14 07:08:11;;;;;;;17.00;5.00;;;10.20;99.90;;;;;;7371482;19;20364;-59
2023/10/14 07:10:38;;;;;;;25.63;11.50;;;10.20;99.90;;;;;;7368711;19;20027;-59
2023/10/14 07:13:05;;;;;;;20.83;4.78;;;10.30;99.90;;;;;;7371073;19;20027;-59
2023/10/14 07:15:36;;;;;;;14.40;4.38;;;10.40;99.90;;;;;;7368779;19;20098;-64
2023/10/14 07:18:02;;;;;;;15.20;3.10;;;10.50;99.90;;;;;;7368561;19;20030;-63
2023/10/14 07:20:29;;;;;;;18.73;3.40;;;11.00;99.90;;;;;;7369936;19;20021;-63
2023/10/14 07:23:00;;;;;;;18.38;5.32;;;11.40;99.90;;;;;;7368065;19;20532;-64
2023/10/14 07:25:32;;;;;;;10.65;2.75;;;11.80;99.90;;;;;;7369581;19;20018;-65
2023/10/14 07:27:59;;;;;;;;;;;12.20;99.90;;;;;;7367495;19;20097;-63
2023/10/14 07:30:28;;;;;;;14.85;3.60;;;12.40;99.90;;;;;;7371627;19;21415;-59
2023/10/14 07:32:55;;;;;;;13.60;3.20;;;12.90;99.90;;;;;;7370232;19;20052;-59
2023/10/14 07:35:22;;;;;;;14.75;2.65;;;13.20;99.90;;;;;;7367126;19;20664;-59
2023/10/14 07:37:50;;;;;;;20.38;7.97;;;13.70;99.90;;;;;;7371241;19;20052;-64
2023/10/14 07:40:24;;;;;;;61.83;48.53;;;13.90;99.90;;;;;;7371242;19;20050;-63
2023/10/14 07:42:56;;;;;;;22.13;9.57;;;14.30;99.90;;;;;;7369832;19;20014;-63
2023/10/14 07:45:29;;;;;;;21.70;10.95;;;14.60;99.90;;;;;;7366597;19;20018;-63
2023/10/14 07:47:57;;;;;;;15.43;2.58;;;15.00;99.90;;;;;;7367117;19;20006;-64
2023/10/14 07:50:24;;;;;;;17.38;3.88;;;15.20;99.90;;;;;;7369162;19;20053;-64
2023/10/14 07:52:54;;;;;;;15.13;4.95;;;15.60;99.90;;;;;;7368296;19;20470;-64
2023/10/14 07:55:25;;;;;;;14.35;2.40;;;15.40;99.90;;;;;;7365447;19;21157;-66
2023/10/14 07:57:51;;;;;;;15.63;2.97;;;15.60;99.90;;;;;;7371027;19;20022;-66
2023/10/14 08:00:18;;;;;;;15.60;2.88;;;15.80;99.90;;;;;;7364460;19;20035;-66
2023/10/14 08:02:45;;;;;;;13.13;2.92;;;16.00;99.90;;;;;;7371032;19;20109;-67
2023/10/14 08:05:11;;;;;;;15.75;3.55;;;16.10;99.90;;;;;;7368447;19;20096;-66
2023/10/14 08:07:40;;;;;;;11.70;2.30;;;16.50;99.90;;;;;;7375414;19;20010;-66
2023/10/14 08:10:17;;;;;;;8.73;2.00;;;16.60;99.90;;;;;;7369542;19;20116;-67
2023/10/14 08:12:50;;;;;;;9.68;2.50;;;16.80;99.90;;;;;;7375650;19;20022;-66
2023/10/14 08:15:19;;;;;;;10.43;2.00;;;17.00;99.90;;;;;;7368840;19;20022;-67
2023/10/14 08:17:48;;;;;;;12.35;3.30;;;17.30;99.90;;;;;;7374078;19;20041;-67
2023/10/14 08:20:19;;;;;;;15.82;2.72;;;17.50;99.90;;;;;;7369764;19;20045;-66
2023/10/14 08:22:47;;;;;;;11.90;2.30;;;17.60;99.90;;;;;;7368458;19;20041;-66
2023/10/14 08:25:18;;;;;;;10.93;2.60;;;17.60;99.90;;;;;;7370814;19;20046;-67
2023/10/14 08:27:46;;;;;;;9.63;1.95;;;17.70;99.90;;;;;;7368823;19;20026;-61
2023/10/14 08:30:13;;;;;;;12.02;2.55;;;18.00;99.90;;;;;;7374348;19;20018;-62
2023/10/14 08:32:40;;;;;;;11.80;2.30;;;18.40;99.90;;;;;;7370343;19;20021;-61
2023/10/14 08:35:16;;;;;;;12.75;2.47;;;18.60;99.90;;;;;;7377536;19;20022;-61
2023/10/14 08:37:50;;;;;;;11.38;2.83;;;19.00;99.90;;;;;;7368469;19;20537;-61
2023/10/14 08:40:21;;;;;;;9.38;2.08;;;18.60;99.90;;;;;;7377880;19;20014;-61
2023/10/14 08:42:57;;;;;;;11.32;2.72;;;19.00;99.90;;;;;;7371693;19;20016;-61
2023/10/14 08:45:26;;;;;;;10.50;2.58;;;19.20;99.90;;;;;;7374193;19;20014;-62
2023/10/14 08:47:54;;;;;;;15.35;2.50;;;19.40;99.90;;;;;;7371102;19;20015;-61
2023/10/14 08:50:25;;;;;;;11.57;2.58;;;19.40;99.90;;;;;;7375473;19;20026;-61
2023/10/14 08:52:54;;;;;;;12.32;2.55;;;19.40;99.90;;;;;;7374642;19;20046;-61
2023/10/14 08:55:20;;;;;;;11.30;2.33;;;18.90;99.90;;;;;;7374953;19;20014;-61
2023/10/14 08:57:48;;;;;;;11.75;2.63;;;18.80;99.90;;;;;;7373320;19;20038;-62
2023/10/14 09:00:19;;;;;;;10.68;2.40;;;17.70;99.90;;;;;;7375811;19;20047;-62
2023/10/14 09:02:49;;;;;;;11.57;2.25;;;17.20;99.90;;;;;;7373329;19;20014;-62
2023/10/14 09:05:21;;;;;;;11.13;2.70;;;16.80;99.90;;;;;;7371903;19;20401;-62
2023/10/14 09:07:49;;;;;;;9.13;2.42;;;16.90;99.90;;;;;;7372175;19;20423;-62
2023/10/14 09:10:19;;;;;;;12.18;2.70;;;17.30;99.90;;;;;;7372113;19;20475;-62
2023/10/14 09:12:58;;;;;;;13.43;2.67;;;17.40;99.90;;;;;;7370866;19;20022;-65
2023/10/14 09:15:33;;;;;;;33.33;23.25;;;17.40;99.90;;;;;;7364759;19;20728;-65
2023/10/14 09:18:00;;;;;;;29.08;20.88;;;17.60;99.90;;;;;;7368583;19;20856;-60
2023/10/14 09:20:31;;;;;;;21.63;15.90;;;18.40;99.90;;;;;;7370797;19;20368;-60
2023/10/14 09:23:17;;;;;;;10.85;2.72;;;19.10;99.90;;;;;;7367870;19;20018;-59
2023/10/14 09:25:52;;;;;;;12.55;3.17;;;19.40;99.90;;;;;;7364737;19;20015;-64
2023/10/14 09:28:20;;;;;;;18.23;9.02;;;19.90;99.90;;;;;;7368968;19;20022;-60
2023/10/14 09:30:51;;;;;;;10.88;4.07;;;20.40;99.90;;;;;;7364469;19;20036;-60
2023/10/14 09:33:27;;;;;;;10.23;3.72;;;21.20;99.90;;;;;;7366518;19;20365;-61
2023/10/14 09:35:58;;;;;;;13.07;4.25;;;20.90;99.90;;;;;;7369480;19;20010;-61
2023/10/14 09:38:26;;;;;;;11.50;2.92;;;21.10;99.90;;;;;;7364352;19;20022;-66
2023/10/14 09:40:57;;;;;;;10.13;2.63;;;21.20;99.90;;;;;;7369322;19;20498;-61
2023/10/14 09:43:27;;;;;;;13.10;2.88;;;21.10;99.90;;;;;;7364740;19;20011;-61
2023/10/14 09:45:55;;;;;;;9.85;2.42;;;21.00;99.90;;;;;;7365477;19;20029;-60
2023/10/14 09:48:29;;;;;;;10.02;2.40;;;21.00;99.90;;;;;;7371081;19;20598;-65
2023/10/14 09:50:57;;;;;;;8.88;3.40;;;21.40;99.90;;;;;;7363881;19;20010;-67
2023/10/14 09:53:26;;;;;;;7.60;1.83;;;21.80;99.90;;;;;;7364726;19;20470;-67
2023/10/14 09:56:07;;;;;;;9.75;2.67;;;21.70;97.20;;;;;;7365087;19;20030;-60
2023/10/14 09:58:46;;;;;;;7.95;2.63;;;21.30;99.80;;;;;;7370783;19;20014;-60
2023/10/14 10:01:19;;;;;;;10.45;2.20;;;20.70;96.00;;;;;;7366786;19;20018;-61
2023/10/14 10:03:57;;;;;;;9.65;2.30;;;19.00;98.00;;;;;;7366980;19;20022;-60
2023/10/14 10:06:43;;;;;;;12.43;2.47;;;18.30;99.90;;;;;;7359530;19;20029;-68
2023/10/14 10:09:17;;;;;;;12.10;2.38;;;18.00;99.90;;;;;;7364021;19;20018;-67
2023/10/14 10:11:50;;;;;;;8.68;2.15;;;17.80;99.90;;;;;;7366847;19;20362;-61
2023/10/14 10:14:22;;;;;;;40.58;28.90;;;18.30;99.90;;;;;;7368942;19;20014;-61
2023/10/14 10:16:52;;;;;;;13.70;7.60;;;18.70;99.90;;;;;;7368734;19;20788;-67
2023/10/14 10:19:21;;;;;;;10.43;5.03;;;18.20;99.90;;;;;;7367644;19;20019;-67
2023/10/14 10:22:20;;;;;;;10.23;2.75;;;17.90;99.90;;;;;;7372988;19;20019;-61
2023/10/14 10:24:47;;;;;;;10.90;4.50;;;18.60;99.90;;;;;;7371424;19;20030;-67
2023/10/14 10:27:16;;;;;;;16.70;9.10;;;19.30;99.90;;;;;;7374996;19;20035;-67
2023/10/14 10:29:50;;;;;;;14.93;4.03;;;20.00;99.90;;;;;;7377516;19;21139;-61
2023/10/14 10:32:30;;;;;;;10.85;2.63;;;20.30;99.90;;;;;;7380167;19;20046;-61
2023/10/14 10:35:05;;;;;;;13.82;9.25;;;20.80;98.60;;;;;;7376922;19;20018;-67
2023/10/14 10:37:43;;;;;;;8.48;3.28;;;21.40;99.40;;;;;;7374900;19;20026;-68
2023/10/14 10:40:11;;;;;;;15.65;9.60;;;21.90;95.90;;;;;;7374478;19;20414;-67
2023/10/14 10:42:44;;;;;;;11.07;4.30;;;21.80;92.50;;;;;;7370752;19;20089;-67
2023/10/14 10:45:21;;;;;;;15.57;6.03;;;22.40;94.20;;;;;;7373419;19;20648;-67
2023/10/14 10:47:54;;;;;;;9.82;2.67;;;21.90;85.40;;;;;;7369867;19;20851;-67
2023/10/14 10:50:22;;;;;;;9.15;2.20;;;22.10;90.50;;;;;;7375687;19;20018;-68
2023/10/14 10:52:54;;;;;;;8.52;1.80;;;21.90;85.00;;;;;;7375531;19;20049;-66
2023/10/14 10:55:24;;;;;;;9.18;1.80;;;22.40;85.20;;;;;;7380680;19;20499;-67
2023/10/14 10:58:00;;;;;;;9.25;2.33;;;22.60;85.20;;;;;;7370452;19;20025;-67
2023/10/14 11:00:32;;;;;;;5.05;1.50;;;22.00;76.70;;;;;;7374248;19;20010;-68
2023/10/14 11:03:03;;;;;;;8.25;3.20;;;20.50;83.00;;;;;;7370476;19;20018;-67
2023/10/14 11:05:33;;;;;;;;;;;18.80;89.70;;;;;;7370814;19;20094;-68
2023/10/14 11:08:03;;;;;;;5.00;1.50;;;17.10;95.80;;;;;;7369262;19;19930;-61
2023/10/14 11:10:33;;;;;;;6.82;1.63;;;16.20;99.90;;;;;;7375235;19;20093;-62
2023/10/14 11:13:00;;;;;;;4.65;1.20;;;17.00;99.90;;;;;;7369401;19;20642;-60
2023/10/14 11:15:31;;;;;;;6.85;1.77;;;17.50;99.90;;;;;;7371656;19;20687;-60
2023/10/14 11:17:59;;;;;;;7.88;1.33;;;17.50;99.90;;;;;;7373980;19;20057;-61
2023/10/14 11:20:36;;;;;;;7.13;1.35;;;17.90;99.90;;;;;;7373928;19;20024;-61
2023/10/14 11:23:04;;;;;;;6.85;1.50;;;18.50;99.90;;;;;;7372163;19;20018;-60
2023/10/14 11:25:30;;;;;;;7.32;1.65;;;19.10;99.90;;;;;;7372833;19;20019;-67
2023/10/14 11:27:58;;;;;;;6.95;1.60;;;20.30;99.90;;;;;;7372706;19;20364;-67
2023/10/14 11:30:27;;;;;;;9.05;1.60;;;21.10;99.90;;;;;;7372491;19;20542;-67
2023/10/14 11:32:58;;;;;;;9.73;3.97;;;21.60;98.10;;;;;;7369412;19;20107;-66
2023/10/14 11:35:29;;;;;;;8.57;4.68;;;22.10;97.80;;;;;;7375583;19;20352;-67
2023/10/14 11:38:03;;;;;;;7.90;1.52;;;22.90;94.10;;;;;;7365795;19;20054;-67
2023/10/14 11:40:37;;;;;;;7.30;1.50;;;22.70;87.30;;;;;;7369842;19;20019;-67
2023/10/14 11:43:11;;;;;;;5.72;2.15;;;23.00;77.40;;;;;;7369424;19;20021;-68
2023/10/14 11:45:43;;;;;;;6.38;2.88;;;23.10;76.00;;;;;;7371316;19;20031;-67
2023/10/14 11:48:26;;;;;;;4.75;2.05;;;22.50;72.20;;;;;;7373800;19;20022;-68
2023/10/14 11:51:02;;;;;;;11.48;5.72;;;21.90;68.00;;;;;;7375151;19;20037;-67
2023/10/14 11:53:31;;;;;;;9.80;5.78;;;21.00;67.50;;;;;;7376009;19;20014;-68
2023/10/14 11:55:59;;;;;;;5.47;1.60;;;20.70;68.70;;;;;;7375310;19;20021;-68
2023/10/14 11:58:31;;;;;;;7.68;2.17;;;20.60;68.20;;;;;;7374750;19;20335;-68
2023/10/14 12:00:58;;;;;;;6.20;1.42;;;20.60;68.40;;;;;;7376332;19;20034;-68
2023/10/14 12:03:27;;;;;;;8.13;2.63;;;20.90;67.50;;;;;;7374821;19;20015;-67
2023/10/14 12:05:59;;;;;;;5.47;1.35;;;21.30;68.40;;;;;;7366948;19;20014;-68
2023/10/14 12:08:39;;;;;;;5.60;1.40;;;20.90;67.50;;;;;;7370068;19;20014;-68
2023/10/14 12:11:08;;;;;;;7.45;1.67;;;21.00;68.80;;;;;;7371251;19;20018;-68
2023/10/14 12:13:35;;;;;;;9.63;2.50;;;19.80;70.20;;;;;;7364395;19;20025;-68
2023/10/14 12:16:05;;;;;;;7.43;1.60;;;18.80;73.50;;;;;;7373825;19;20025;-60
2023/10/14 12:18:35;;;;;;;8.65;1.67;;;17.90;75.60;;;;;;7369033;19;20943;-60
2023/10/14 12:21:02;;;;;;;7.55;2.78;;;17.30;80.20;;;;;;7369893;19;20829;-70
2023/10/14 12:23:32;;;;;;;7.88;1.80;;;16.90;86.80;;;;;;7367624;19;20390;-68
2023/10/14 12:26:01;;;;;;;11.15;2.35;;;16.50;89.40;;;;;;7366985;19;20018;-66
2023/10/14 12:28:33;;;;;;;10.77;3.72;;;16.20;91.60;;;;;;7369826;19;20015;-67
2023/10/14 12:31:03;;;;;;;11.80;4.18;;;15.80;94.50;;;;;;7370188;19;20379;-67
2023/10/14 12:33:35;;;;;;;9.55;2.10;;;15.60;97.00;;;;;;7361915;19;20090;-66
2023/10/14 12:36:06;;;;;;;9.43;2.28;;;15.20;98.50;;;;;;7363363;19;21266;-66
2023/10/14 12:38:33;;;;;;;8.55;2.03;;;15.50;99.90;;;;;;7371420;19;20037;-67
2023/10/14 12:41:02;;;;;;;9.38;2.28;;;17.10;97.50;;;;;;7362648;19;20026;-67
2023/10/14 12:43:32;;;;;;;7.97;2.22;;;17.60;94.30;;;;;;7364653;19;20018;-67
2023/10/14 12:46:14;;;;;;;10.13;2.20;;;18.20;92.60;;;;;;7364570;19;20033;-68
2023/10/14 12:48:44;;;;;;;9.02;2.00;;;17.50;92.20;;;;;;7364096;19;20022;-65
2023/10/14 12:51:12;;;;;;;9.52;2.00;;;16.50;92.90;;;;;;7366388;19;20423;-67
2023/10/14 12:53:45;;;;;;;8.43;3.30;;;15.90;95.10;;;;;;7368906;19;20019;-64
2023/10/14 12:56:16;;;;;;;18.15;9.52;;;15.30;97.00;;;;;;7367543;19;20018;-62
2023/10/14 12:58:48;;;;;;;12.80;4.60;;;16.40;97.00;;;;;;7372622;19;20713;-62
2023/10/14 13:01:16;;;;;;;12.90;5.57;;;17.40;95.00;;;;;;7368424;19;20015;-62
2023/10/14 13:03:56;;;;;;;10.27;1.88;;;18.60;93.00;;;;;;7367092;19;20518;-61
2023/10/14 13:06:26;;;;;;;8.35;2.60;;;19.50;89.40;;;;;;7364430;19;20093;-62
2023/10/14 13:08:58;;;;;;;11.00;2.45;;;20.60;85.40;;;;;;7367491;19;20060;-62
2023/10/14 13:11:34;;;;;;;14.77;8.40;;;20.60;80.90;;;;;;7367749;19;20659;-61
2023/10/14 13:14:01;;;;;;;9.98;2.28;;;20.90;73.40;;;;;;7363734;19;20041;-62
2023/10/14 13:16:27;;;;;;;7.72;1.90;;;20.90;74.10;;;;;;7364134;19;20115;-68
2023/10/14 13:18:56;;;;;;;11.20;2.50;;;21.30;72.70;;;;;;7365476;19;20029;-67
2023/10/14 13:21:31;;;;;;;10.55;2.42;;;21.40;71.40;;;;;;7365868;19;20026;-67
2023/10/14 13:24:11;;;;;;;11.27;3.97;;;21.00;69.30;;;;;;7365435;19;20339;-67
2023/10/14 13:26:39;;;;;;;10.15;2.33;;;20.90;67.70;;;;;;7363727;19;20098;-67
2023/10/14 13:29:06;;;;;;;8.45;1.98;;;20.60;69.90;;;;;;7372438;19;20368;-62
2023/10/14 13:31:32;;;;;;;17.02;4.25;;;20.20;66.90;;;;;;7368029;19;20085;-62